Terminal Aerodrome Forecast
Issued by NWS

Home | Current Version | Previous Version | Text Only | Print | Product List | Glossary On
Versions: 1 2 3 4 5 6 7 8 9 10 11 12 13 14 15 16 17 18 19 20 21 22 23 24 25 26
000
FTAK31 PANC 020525
TAFADQ
TAF
PADQ 020525Z 0206/0306 05014KT P6SM OVC040
     FM021200 04020G28KT P6SM BKN030
     FM022000 02032G44KT P6SM -SHRA OVC025
     FM030300 36028G36KT P6SM BKN035=

USA.gov is the U.S. government's official web portal to all federal, state and local government web resources and services.